Alpine, Utah
Current Conditions -  °F | °C
As of 8:49 AM on Sunday 21 Dec 2014 (Local Time) from KPVU Reporting Station
Rain Showers Rain Showers  
Wind Chill: 33°   Ceiling: 2000
Heat Index: 37°   Visibility: 5mi
Dew Point: 34°   Wind: 6mph
Humidity: 87%   Direction: 100°E
Pressure: 30.03"   Gusts: NA
Location:  40.45°N, 111.78°W
Report Text: KPVU 211549Z 10005KT 5SM VCSH OVC020 03/01 A3003
Loading
Personal Weather Stations






























Interactive Weather Map New forecast layout! Learn more

10-Day Weather Forecast

Advertisements
Track Severe Weather on mobile